sensor_id;sensor_type;location;lat;lon;timestamp;P1;durP1;ratioP1;P2;durP2;ratioP2
12122;SDS011;6125;59.628;17.852;2023-02-28T00:00:01;1.53;;;0.80;;
12122;SDS011;6125;59.628;17.852;2023-02-28T00:02:34;0.60;;;0.60;;
12122;SDS011;6125;59.628;17.852;2023-02-28T00:05:01;0.70;;;0.70;;
12122;SDS011;6125;59.628;17.852;2023-02-28T00:07:28;0.60;;;0.60;;
12122;SDS011;6125;59.628;17.852;2023-02-28T00:09:55;0.63;;;0.63;;
12122;SDS011;6125;59.628;17.852;2023-02-28T00:12:24;0.50;;;0.50;;
12122;SDS011;6125;59.628;17.852;2023-02-28T00:14:51;0.90;;;0.90;;
12122;SDS011;6125;59.628;17.852;2023-02-28T00:17:18;0.40;;;0.40;;
12122;SDS011;6125;59.628;17.852;2023-02-28T00:19:46;0.73;;;0.73;;
12122;SDS011;6125;59.628;17.852;2023-02-28T00:22:14;0.67;;;0.60;;
12122;SDS011;6125;59.628;17.852;2023-02-28T00:24:41;0.53;;;0.53;;
12122;SDS011;6125;59.628;17.852;2023-02-28T00:27:08;0.77;;;0.77;;
12122;SDS011;6125;59.628;17.852;2023-02-28T00:29:37;0.60;;;0.60;;
12122;SDS011;6125;59.628;17.852;2023-02-28T00:32:04;0.60;;;0.60;;
12122;SDS011;6125;59.628;17.852;2023-02-28T00:34:32;0.57;;;0.50;;
12122;SDS011;6125;59.628;17.852;2023-02-28T00:37:02;0.90;;;0.80;;
12122;SDS011;6125;59.628;17.852;2023-02-28T00:39:30;0.63;;;0.57;;
12122;SDS011;6125;59.628;17.852;2023-02-28T00:41:59;0.60;;;0.60;;
12122;SDS011;6125;59.628;17.852;2023-02-28T00:44:27;0.70;;;0.70;;
12122;SDS011;6125;59.628;17.852;2023-02-28T00:46:56;0.60;;;0.60;;
12122;SDS011;6125;59.628;17.852;2023-02-28T00:49:23;0.93;;;0.80;;
12122;SDS011;6125;59.628;17.852;2023-02-28T00:51:51;2.73;;;0.93;;
12122;SDS011;6125;59.628;17.852;2023-02-28T00:54:18;1.20;;;0.70;;
12122;SDS011;6125;59.628;17.852;2023-02-28T00:57:06;0.70;;;0.70;;
12122;SDS011;6125;59.628;17.852;2023-02-28T00:59:33;0.63;;;0.63;;
12122;SDS011;6125;59.628;17.852;2023-02-28T01:02:07;0.87;;;0.87;;
12122;SDS011;6125;59.628;17.852;2023-02-28T01:04:35;1.37;;;0.70;;
12122;SDS011;6125;59.628;17.852;2023-02-28T01:07:02;0.70;;;0.70;;
12122;SDS011;6125;59.628;17.852;2023-02-28T01:09:29;0.60;;;0.60;;
12122;SDS011;6125;59.628;17.852;2023-02-28T01:11:56;0.63;;;0.63;;
12122;SDS011;6125;59.628;17.852;2023-02-28T01:14:23;0.50;;;0.50;;
12122;SDS011;6125;59.628;17.852;2023-02-28T01:16:50;0.60;;;0.60;;
12122;SDS011;6125;59.628;17.852;2023-02-28T01:19:19;0.70;;;0.70;;
12122;SDS011;6125;59.628;17.852;2023-02-28T01:21:46;1.53;;;0.80;;
12122;SDS011;6125;59.628;17.852;2023-02-28T01:24:13;0.63;;;0.50;;
12122;SDS011;6125;59.628;17.852;2023-02-28T01:26:40;0.87;;;0.60;;
12122;SDS011;6125;59.628;17.852;2023-02-28T01:29:07;2.20;;;0.63;;
12122;SDS011;6125;59.628;17.852;2023-02-28T01:31:34;1.43;;;0.70;;
12122;SDS011;6125;59.628;17.852;2023-02-28T01:34:01;0.90;;;0.57;;
12122;SDS011;6125;59.628;17.852;2023-02-28T01:36:30;0.50;;;0.50;;
12122;SDS011;6125;59.628;17.852;2023-02-28T01:38:57;0.60;;;0.60;;
12122;SDS011;6125;59.628;17.852;2023-02-28T01:41:25;1.10;;;0.80;;
12122;SDS011;6125;59.628;17.852;2023-02-28T01:43:58;0.60;;;0.60;;
12122;SDS011;6125;59.628;17.852;2023-02-28T01:46:29;1.27;;;0.70;;
12122;SDS011;6125;59.628;17.852;2023-02-28T01:48:59;0.67;;;0.63;;
12122;SDS011;6125;59.628;17.852;2023-02-28T01:51:32;2.50;;;0.63;;
12122;SDS011;6125;59.628;17.852;2023-02-28T01:54:03;0.60;;;0.57;;
12122;SDS011;6125;59.628;17.852;2023-02-28T01:56:38;0.70;;;0.70;;
12122;SDS011;6125;59.628;17.852;2023-02-28T01:59:10;3.33;;;0.70;;
12122;SDS011;6125;59.628;17.852;2023-02-28T02:01:39;0.90;;;0.77;;
12122;SDS011;6125;59.628;17.852;2023-02-28T02:04:06;0.40;;;0.40;;
12122;SDS011;6125;59.628;17.852;2023-02-28T02:06:36;0.53;;;0.53;;
12122;SDS011;6125;59.628;17.852;2023-02-28T02:09:08;0.53;;;0.53;;
12122;SDS011;6125;59.628;17.852;2023-02-28T02:11:35;0.30;;;0.30;;
12122;SDS011;6125;59.628;17.852;2023-02-28T02:14:09;0.47;;;0.47;;
12122;SDS011;6125;59.628;17.852;2023-02-28T02:17:04;0.60;;;0.60;;
12122;SDS011;6125;59.628;17.852;2023-02-28T02:19:44;0.50;;;0.50;;
12122;SDS011;6125;59.628;17.852;2023-02-28T02:25:56;1.70;;;0.50;;
12122;SDS011;6125;59.628;17.852;2023-02-28T02:34:50;0.40;;;0.40;;
12122;SDS011;6125;59.628;17.852;2023-02-28T02:37:27;0.37;;;0.37;;
12122;SDS011;6125;59.628;17.852;2023-02-28T02:40:02;0.97;;;0.50;;
12122;SDS011;6125;59.628;17.852;2023-02-28T02:42:36;0.50;;;0.50;;
12122;SDS011;6125;59.628;17.852;2023-02-28T02:45:09;1.07;;;0.60;;
12122;SDS011;6125;59.628;17.852;2023-02-28T02:47:39;0.30;;;0.30;;
12122;SDS011;6125;59.628;17.852;2023-02-28T02:50:11;0.40;;;0.40;;
12122;SDS011;6125;59.628;17.852;2023-02-28T02:52:42;0.30;;;0.30;;
12122;SDS011;6125;59.628;17.852;2023-02-28T02:55:14;0.40;;;0.40;;
12122;SDS011;6125;59.628;17.852;2023-02-28T02:57:44;0.40;;;0.40;;
12122;SDS011;6125;59.628;17.852;2023-02-28T03:00:14;0.40;;;0.40;;
12122;SDS011;6125;59.628;17.852;2023-02-28T03:02:44;0.50;;;0.50;;
12122;SDS011;6125;59.628;17.852;2023-02-28T03:05:17;0.30;;;0.30;;
12122;SDS011;6125;59.628;17.852;2023-02-28T03:07:48;0.40;;;0.40;;
12122;SDS011;6125;59.628;17.852;2023-02-28T03:10:31;0.43;;;0.43;;
12122;SDS011;6125;59.628;17.852;2023-02-28T03:13:03;0.50;;;0.50;;
12122;SDS011;6125;59.628;17.852;2023-02-28T03:15:44;0.50;;;0.50;;
12122;SDS011;6125;59.628;17.852;2023-02-28T03:18:22;0.40;;;0.40;;
12122;SDS011;6125;59.628;17.852;2023-02-28T03:20:56;0.40;;;0.40;;
12122;SDS011;6125;59.628;17.852;2023-02-28T03:23:32;0.67;;;0.60;;
12122;SDS011;6125;59.628;17.852;2023-02-28T03:26:07;1.50;;;0.40;;
12122;SDS011;6125;59.628;17.852;2023-02-28T03:28:47;0.50;;;0.50;;
12122;SDS011;6125;59.628;17.852;2023-02-28T03:31:19;0.50;;;0.50;;
12122;SDS011;6125;59.628;17.852;2023-02-28T03:33:53;0.40;;;0.40;;
12122;SDS011;6125;59.628;17.852;2023-02-28T03:36:28;0.23;;;0.23;;
12122;SDS011;6125;59.628;17.852;2023-02-28T03:38:58;0.50;;;0.50;;
12122;SDS011;6125;59.628;17.852;2023-02-28T03:41:30;0.50;;;0.43;;
12122;SDS011;6125;59.628;17.852;2023-02-28T03:44:03;0.47;;;0.47;;
12122;SDS011;6125;59.628;17.852;2023-02-28T03:46:35;0.50;;;0.50;;
12122;SDS011;6125;59.628;17.852;2023-02-28T03:49:05;0.50;;;0.50;;
12122;SDS011;6125;59.628;17.852;2023-02-28T03:51:39;0.57;;;0.50;;
12122;SDS011;6125;59.628;17.852;2023-02-28T03:54:09;0.30;;;0.30;;
12122;SDS011;6125;59.628;17.852;2023-02-28T03:56:43;0.30;;;0.30;;
12122;SDS011;6125;59.628;17.852;2023-02-28T03:59:14;0.40;;;0.40;;
12122;SDS011;6125;59.628;17.852;2023-02-28T04:01:45;0.30;;;0.30;;
12122;SDS011;6125;59.628;17.852;2023-02-28T04:04:14;0.93;;;0.60;;
12122;SDS011;6125;59.628;17.852;2023-02-28T04:06:44;0.40;;;0.40;;
12122;SDS011;6125;59.628;17.852;2023-02-28T04:09:12;0.40;;;0.40;;
12122;SDS011;6125;59.628;17.852;2023-02-28T04:11:41;0.50;;;0.50;;
12122;SDS011;6125;59.628;17.852;2023-02-28T04:14:10;0.50;;;0.50;;
12122;SDS011;6125;59.628;17.852;2023-02-28T04:16:39;0.60;;;0.60;;
12122;SDS011;6125;59.628;17.852;2023-02-28T04:19:08;0.60;;;0.60;;
12122;SDS011;6125;59.628;17.852;2023-02-28T04:21:36;0.30;;;0.30;;
12122;SDS011;6125;59.628;17.852;2023-02-28T04:24:07;0.87;;;0.70;;
12122;SDS011;6125;59.628;17.852;2023-02-28T04:26:39;0.50;;;0.50;;
12122;SDS011;6125;59.628;17.852;2023-02-28T04:29:08;0.30;;;0.30;;
12122;SDS011;6125;59.628;17.852;2023-02-28T04:31:36;0.40;;;0.40;;
12122;SDS011;6125;59.628;17.852;2023-02-28T04:34:04;1.33;;;0.50;;
12122;SDS011;6125;59.628;17.852;2023-02-28T04:36:31;0.60;;;0.60;;
12122;SDS011;6125;59.628;17.852;2023-02-28T04:38:58;0.90;;;0.67;;
12122;SDS011;6125;59.628;17.852;2023-02-28T04:41:27;1.40;;;0.50;;
12122;SDS011;6125;59.628;17.852;2023-02-28T04:43:54;0.50;;;0.50;;
12122;SDS011;6125;59.628;17.852;2023-02-28T04:46:22;0.40;;;0.40;;
12122;SDS011;6125;59.628;17.852;2023-02-28T04:48:49;0.50;;;0.50;;
12122;SDS011;6125;59.628;17.852;2023-02-28T04:51:17;0.43;;;0.43;;
12122;SDS011;6125;59.628;17.852;2023-02-28T04:53:45;0.30;;;0.30;;
12122;SDS011;6125;59.628;17.852;2023-02-28T04:56:13;0.50;;;0.50;;
12122;SDS011;6125;59.628;17.852;2023-02-28T04:58:42;1.00;;;0.43;;
12122;SDS011;6125;59.628;17.852;2023-02-28T05:01:17;0.50;;;0.50;;
12122;SDS011;6125;59.628;17.852;2023-02-28T05:03:46;0.50;;;0.50;;
12122;SDS011;6125;59.628;17.852;2023-02-28T05:06:13;0.60;;;0.60;;
12122;SDS011;6125;59.628;17.852;2023-02-28T05:08:41;0.50;;;0.50;;
12122;SDS011;6125;59.628;17.852;2023-02-28T05:11:11;0.57;;;0.57;;
12122;SDS011;6125;59.628;17.852;2023-02-28T05:13:42;0.60;;;0.60;;
12122;SDS011;6125;59.628;17.852;2023-02-28T05:16:09;0.60;;;0.60;;
12122;SDS011;6125;59.628;17.852;2023-02-28T05:18:36;0.63;;;0.63;;
12122;SDS011;6125;59.628;17.852;2023-02-28T05:21:04;0.50;;;0.50;;
12122;SDS011;6125;59.628;17.852;2023-02-28T05:23:31;0.60;;;0.60;;
12122;SDS011;6125;59.628;17.852;2023-02-28T05:25:59;0.93;;;0.60;;
12122;SDS011;6125;59.628;17.852;2023-02-28T05:28:26;0.60;;;0.60;;
12122;SDS011;6125;59.628;17.852;2023-02-28T05:30:54;0.80;;;0.80;;
12122;SDS011;6125;59.628;17.852;2023-02-28T05:33:21;0.50;;;0.50;;
12122;SDS011;6125;59.628;17.852;2023-02-28T05:35:48;0.60;;;0.60;;
12122;SDS011;6125;59.628;17.852;2023-02-28T05:38:15;0.67;;;0.67;;
12122;SDS011;6125;59.628;17.852;2023-02-28T05:40:42;0.50;;;0.50;;
12122;SDS011;6125;59.628;17.852;2023-02-28T05:43:10;0.70;;;0.70;;
12122;SDS011;6125;59.628;17.852;2023-02-28T05:45:37;1.33;;;0.60;;
12122;SDS011;6125;59.628;17.852;2023-02-28T05:48:07;0.40;;;0.40;;
12122;SDS011;6125;59.628;17.852;2023-02-28T05:50:34;0.97;;;0.47;;
12122;SDS011;6125;59.628;17.852;2023-02-28T05:53:01;0.47;;;0.40;;
12122;SDS011;6125;59.628;17.852;2023-02-28T05:55:29;0.80;;;0.67;;
12122;SDS011;6125;59.628;17.852;2023-02-28T05:57:56;0.80;;;0.80;;
12122;SDS011;6125;59.628;17.852;2023-02-28T06:00:24;0.73;;;0.60;;
12122;SDS011;6125;59.628;17.852;2023-02-28T06:02:51;0.80;;;0.80;;
12122;SDS011;6125;59.628;17.852;2023-02-28T06:05:22;0.50;;;0.50;;
12122;SDS011;6125;59.628;17.852;2023-02-28T06:07:50;0.40;;;0.40;;
12122;SDS011;6125;59.628;17.852;2023-02-28T06:10:17;1.43;;;0.50;;
12122;SDS011;6125;59.628;17.852;2023-02-28T06:12:44;2.90;;;1.10;;
12122;SDS011;6125;59.628;17.852;2023-02-28T06:15:12;0.77;;;0.77;;
12122;SDS011;6125;59.628;17.852;2023-02-28T06:17:40;3.13;;;0.77;;
12122;SDS011;6125;59.628;17.852;2023-02-28T06:20:08;0.60;;;0.60;;
12122;SDS011;6125;59.628;17.852;2023-02-28T06:22:39;0.80;;;0.53;;
12122;SDS011;6125;59.628;17.852;2023-02-28T06:25:06;0.60;;;0.60;;
12122;SDS011;6125;59.628;17.852;2023-02-28T06:27:34;0.60;;;0.60;;
12122;SDS011;6125;59.628;17.852;2023-02-28T06:30:01;3.23;;;1.67;;
12122;SDS011;6125;59.628;17.852;2023-02-28T06:32:28;0.77;;;0.73;;
12122;SDS011;6125;59.628;17.852;2023-02-28T06:34:55;2.37;;;0.73;;
12122;SDS011;6125;59.628;17.852;2023-02-28T06:37:23;0.77;;;0.77;;
12122;SDS011;6125;59.628;17.852;2023-02-28T06:39:53;0.83;;;0.70;;
12122;SDS011;6125;59.628;17.852;2023-02-28T06:42:21;0.70;;;0.70;;
12122;SDS011;6125;59.628;17.852;2023-02-28T06:44:50;1.10;;;0.80;;
12122;SDS011;6125;59.628;17.852;2023-02-28T06:47:17;0.60;;;0.60;;
12122;SDS011;6125;59.628;17.852;2023-02-28T06:49:44;0.80;;;0.80;;
12122;SDS011;6125;59.628;17.852;2023-02-28T06:52:11;0.73;;;0.73;;
12122;SDS011;6125;59.628;17.852;2023-02-28T06:54:38;0.70;;;0.67;;
12122;SDS011;6125;59.628;17.852;2023-02-28T06:57:06;1.13;;;0.70;;
12122;SDS011;6125;59.628;17.852;2023-02-28T06:59:34;1.10;;;0.63;;
12122;SDS011;6125;59.628;17.852;2023-02-28T07:02:01;0.30;;;0.30;;
12122;SDS011;6125;59.628;17.852;2023-02-28T07:04:29;0.83;;;0.60;;
12122;SDS011;6125;59.628;17.852;2023-02-28T07:06:56;0.90;;;0.70;;
12122;SDS011;6125;59.628;17.852;2023-02-28T07:09:23;0.50;;;0.50;;
12122;SDS011;6125;59.628;17.852;2023-02-28T07:11:55;0.50;;;0.50;;
12122;SDS011;6125;59.628;17.852;2023-02-28T07:14:24;0.50;;;0.50;;
12122;SDS011;6125;59.628;17.852;2023-02-28T07:16:51;0.60;;;0.60;;
12122;SDS011;6125;59.628;17.852;2023-02-28T07:19:18;2.57;;;0.60;;
12122;SDS011;6125;59.628;17.852;2023-02-28T07:21:45;0.50;;;0.50;;
12122;SDS011;6125;59.628;17.852;2023-02-28T07:24:12;0.63;;;0.63;;
12122;SDS011;6125;59.628;17.852;2023-02-28T07:26:40;0.40;;;0.40;;
12122;SDS011;6125;59.628;17.852;2023-02-28T07:29:08;0.60;;;0.60;;
12122;SDS011;6125;59.628;17.852;2023-02-28T07:31:36;0.70;;;0.70;;
12122;SDS011;6125;59.628;17.852;2023-02-28T07:34:03;0.90;;;0.80;;
12122;SDS011;6125;59.628;17.852;2023-02-28T07:36:30;0.50;;;0.50;;
12122;SDS011;6125;59.628;17.852;2023-02-28T07:38:58;0.90;;;0.70;;
12122;SDS011;6125;59.628;17.852;2023-02-28T07:41:25;0.60;;;0.60;;
12122;SDS011;6125;59.628;17.852;2023-02-28T07:43:54;1.83;;;0.60;;
12122;SDS011;6125;59.628;17.852;2023-02-28T07:46:22;0.70;;;0.70;;
12122;SDS011;6125;59.628;17.852;2023-02-28T07:48:51;0.70;;;0.70;;
12122;SDS011;6125;59.628;17.852;2023-02-28T07:51:20;1.80;;;0.83;;
12122;SDS011;6125;59.628;17.852;2023-02-28T07:53:48;0.50;;;0.50;;
12122;SDS011;6125;59.628;17.852;2023-02-28T07:56:15;0.60;;;0.60;;
12122;SDS011;6125;59.628;17.852;2023-02-28T07:58:42;0.50;;;0.50;;
12122;SDS011;6125;59.628;17.852;2023-02-28T08:01:10;0.70;;;0.70;;
12122;SDS011;6125;59.628;17.852;2023-02-28T08:03:38;0.47;;;0.47;;
12122;SDS011;6125;59.628;17.852;2023-02-28T08:06:08;0.50;;;0.50;;
12122;SDS011;6125;59.628;17.852;2023-02-28T08:08:42;0.70;;;0.70;;
12122;SDS011;6125;59.628;17.852;2023-02-28T08:11:09;0.77;;;0.60;;
12122;SDS011;6125;59.628;17.852;2023-02-28T08:13:37;0.53;;;0.53;;
12122;SDS011;6125;59.628;17.852;2023-02-28T08:16:04;0.70;;;0.70;;
12122;SDS011;6125;59.628;17.852;2023-02-28T08:18:31;0.50;;;0.50;;
12122;SDS011;6125;59.628;17.852;2023-02-28T08:20:59;0.77;;;0.60;;
12122;SDS011;6125;59.628;17.852;2023-02-28T08:23:32;0.60;;;0.60;;
12122;SDS011;6125;59.628;17.852;2023-02-28T08:26:00;1.50;;;0.50;;
12122;SDS011;6125;59.628;17.852;2023-02-28T08:28:27;0.70;;;0.60;;
12122;SDS011;6125;59.628;17.852;2023-02-28T08:30:54;0.60;;;0.53;;
12122;SDS011;6125;59.628;17.852;2023-02-28T08:33:21;1.03;;;0.70;;
12122;SDS011;6125;59.628;17.852;2023-02-28T08:35:51;0.50;;;0.50;;
12122;SDS011;6125;59.628;17.852;2023-02-28T08:38:19;0.60;;;0.60;;
12122;SDS011;6125;59.628;17.852;2023-02-28T08:40:48;0.70;;;0.70;;
12122;SDS011;6125;59.628;17.852;2023-02-28T08:43:15;0.40;;;0.40;;
12122;SDS011;6125;59.628;17.852;2023-02-28T08:45:42;0.70;;;0.70;;
12122;SDS011;6125;59.628;17.852;2023-02-28T08:48:09;0.93;;;0.83;;
12122;SDS011;6125;59.628;17.852;2023-02-28T08:50:36;0.60;;;0.60;;
12122;SDS011;6125;59.628;17.852;2023-02-28T08:53:03;0.60;;;0.60;;
12122;SDS011;6125;59.628;17.852;2023-02-28T08:55:30;0.60;;;0.60;;
12122;SDS011;6125;59.628;17.852;2023-02-28T08:57:59;0.43;;;0.43;;
12122;SDS011;6125;59.628;17.852;2023-02-28T09:00:26;0.47;;;0.47;;
12122;SDS011;6125;59.628;17.852;2023-02-28T09:02:53;0.60;;;0.60;;
12122;SDS011;6125;59.628;17.852;2023-02-28T09:05:20;1.80;;;0.50;;
12122;SDS011;6125;59.628;17.852;2023-02-28T09:07:48;0.70;;;0.70;;
12122;SDS011;6125;59.628;17.852;2023-02-28T09:10:16;0.50;;;0.50;;
12122;SDS011;6125;59.628;17.852;2023-02-28T09:12:43;0.40;;;0.40;;
12122;SDS011;6125;59.628;17.852;2023-02-28T09:15:13;0.60;;;0.60;;
12122;SDS011;6125;59.628;17.852;2023-02-28T09:17:40;0.53;;;0.40;;
12122;SDS011;6125;59.628;17.852;2023-02-28T09:20:08;0.60;;;0.60;;
12122;SDS011;6125;59.628;17.852;2023-02-28T09:22:36;0.67;;;0.60;;
12122;SDS011;6125;59.628;17.852;2023-02-28T09:25:03;0.47;;;0.47;;
12122;SDS011;6125;59.628;17.852;2023-02-28T09:27:30;0.47;;;0.47;;
12122;SDS011;6125;59.628;17.852;2023-02-28T09:29:57;0.50;;;0.50;;
12122;SDS011;6125;59.628;17.852;2023-02-28T09:32:26;0.70;;;0.70;;
12122;SDS011;6125;59.628;17.852;2023-02-28T09:34:53;0.43;;;0.43;;
12122;SDS011;6125;59.628;17.852;2023-02-28T09:37:20;1.07;;;0.60;;
12122;SDS011;6125;59.628;17.852;2023-02-28T09:39:49;1.50;;;1.03;;
12122;SDS011;6125;59.628;17.852;2023-02-28T09:42:18;0.97;;;0.53;;
12122;SDS011;6125;59.628;17.852;2023-02-28T09:44:52;2.47;;;0.50;;
12122;SDS011;6125;59.628;17.852;2023-02-28T09:47:23;2.03;;;0.60;;
12122;SDS011;6125;59.628;17.852;2023-02-28T09:49:58;0.60;;;0.60;;
12122;SDS011;6125;59.628;17.852;2023-02-28T09:52:37;2.60;;;0.70;;
12122;SDS011;6125;59.628;17.852;2023-02-28T09:55:18;0.50;;;0.50;;
12122;SDS011;6125;59.628;17.852;2023-02-28T09:57:47;0.70;;;0.70;;
12122;SDS011;6125;59.628;17.852;2023-02-28T10:00:18;0.50;;;0.50;;
12122;SDS011;6125;59.628;17.852;2023-02-28T10:02:52;0.70;;;0.70;;
12122;SDS011;6125;59.628;17.852;2023-02-28T10:05:28;0.60;;;0.60;;
12122;SDS011;6125;59.628;17.852;2023-02-28T10:08:00;0.60;;;0.60;;
12122;SDS011;6125;59.628;17.852;2023-02-28T10:10:35;0.60;;;0.60;;
12122;SDS011;6125;59.628;17.852;2023-02-28T10:13:07;0.50;;;0.50;;
12122;SDS011;6125;59.628;17.852;2023-02-28T10:15:42;1.33;;;0.70;;
12122;SDS011;6125;59.628;17.852;2023-02-28T10:18:14;0.37;;;0.37;;
12122;SDS011;6125;59.628;17.852;2023-02-28T10:20:47;0.40;;;0.40;;
12122;SDS011;6125;59.628;17.852;2023-02-28T10:23:17;0.50;;;0.50;;
12122;SDS011;6125;59.628;17.852;2023-02-28T10:25:50;1.00;;;0.70;;
12122;SDS011;6125;59.628;17.852;2023-02-28T10:28:21;5.93;;;0.63;;
12122;SDS011;6125;59.628;17.852;2023-02-28T10:30:49;1.17;;;0.50;;
12122;SDS011;6125;59.628;17.852;2023-02-28T10:33:21;0.60;;;0.60;;
12122;SDS011;6125;59.628;17.852;2023-02-28T10:35:50;3.73;;;0.80;;
12122;SDS011;6125;59.628;17.852;2023-02-28T10:38:18;0.80;;;0.60;;
12122;SDS011;6125;59.628;17.852;2023-02-28T10:40:47;1.00;;;0.90;;
12122;SDS011;6125;59.628;17.852;2023-02-28T10:43:21;1.03;;;0.93;;
12122;SDS011;6125;59.628;17.852;2023-02-28T10:46:01;1.20;;;1.00;;
12122;SDS011;6125;59.628;17.852;2023-02-28T10:48:33;1.87;;;0.70;;
12122;SDS011;6125;59.628;17.852;2023-02-28T10:51:02;1.47;;;1.00;;
12122;SDS011;6125;59.628;17.852;2023-02-28T10:56:16;1.20;;;1.10;;
12122;SDS011;6125;59.628;17.852;2023-02-28T10:58:50;1.30;;;1.20;;
12122;SDS011;6125;59.628;17.852;2023-02-28T11:01:20;1.33;;;0.70;;
12122;SDS011;6125;59.628;17.852;2023-02-28T11:03:50;1.00;;;0.90;;
12122;SDS011;6125;59.628;17.852;2023-02-28T11:06:19;1.20;;;1.10;;
12122;SDS011;6125;59.628;17.852;2023-02-28T11:08:48;0.93;;;0.60;;
12122;SDS011;6125;59.628;17.852;2023-02-28T11:11:18;1.63;;;1.00;;
12122;SDS011;6125;59.628;17.852;2023-02-28T11:13:49;0.57;;;0.57;;
12122;SDS011;6125;59.628;17.852;2023-02-28T11:16:19;0.80;;;0.80;;
12122;SDS011;6125;59.628;17.852;2023-02-28T11:18:48;2.80;;;0.97;;
12122;SDS011;6125;59.628;17.852;2023-02-28T11:21:20;0.80;;;0.80;;
12122;SDS011;6125;59.628;17.852;2023-02-28T11:23:50;0.97;;;0.80;;
12122;SDS011;6125;59.628;17.852;2023-02-28T11:26:37;0.80;;;0.80;;
12122;SDS011;6125;59.628;17.852;2023-02-28T11:29:14;0.73;;;0.60;;
12122;SDS011;6125;59.628;17.852;2023-02-28T11:31:57;1.10;;;1.00;;
12122;SDS011;6125;59.628;17.852;2023-02-28T11:34:30;1.37;;;1.00;;
12122;SDS011;6125;59.628;17.852;2023-02-28T11:36:58;0.80;;;0.80;;
12122;SDS011;6125;59.628;17.852;2023-02-28T11:39:30;2.63;;;0.70;;
12122;SDS011;6125;59.628;17.852;2023-02-28T11:42:13;0.67;;;0.67;;
12122;SDS011;6125;59.628;17.852;2023-02-28T11:45:11;0.87;;;0.87;;
12122;SDS011;6125;59.628;17.852;2023-02-28T11:47:47;0.73;;;0.67;;
12122;SDS011;6125;59.628;17.852;2023-02-28T11:50:36;0.90;;;0.90;;
12122;SDS011;6125;59.628;17.852;2023-02-28T11:53:17;0.73;;;0.73;;
12122;SDS011;6125;59.628;17.852;2023-02-28T11:55:52;1.10;;;1.00;;
12122;SDS011;6125;59.628;17.852;2023-02-28T11:58:27;1.73;;;0.70;;
12122;SDS011;6125;59.628;17.852;2023-02-28T12:01:04;1.13;;;1.00;;
12122;SDS011;6125;59.628;17.852;2023-02-28T12:03:42;1.93;;;0.90;;
12122;SDS011;6125;59.628;17.852;2023-02-28T12:06:20;0.87;;;0.77;;
12122;SDS011;6125;59.628;17.852;2023-02-28T12:09:03;0.60;;;0.60;;
12122;SDS011;6125;59.628;17.852;2023-02-28T12:11:44;2.20;;;0.60;;
12122;SDS011;6125;59.628;17.852;2023-02-28T12:14:21;0.60;;;0.60;;
12122;SDS011;6125;59.628;17.852;2023-02-28T12:17:06;1.70;;;0.57;;
12122;SDS011;6125;59.628;17.852;2023-02-28T12:19:48;0.70;;;0.40;;
12122;SDS011;6125;59.628;17.852;2023-02-28T12:22:29;0.67;;;0.40;;
12122;SDS011;6125;59.628;17.852;2023-02-28T12:25:15;0.57;;;0.57;;
12122;SDS011;6125;59.628;17.852;2023-02-28T12:27:58;0.37;;;0.30;;
12122;SDS011;6125;59.628;17.852;2023-02-28T12:30:27;3.50;;;0.60;;
12122;SDS011;6125;59.628;17.852;2023-02-28T12:32:56;0.60;;;0.60;;
12122;SDS011;6125;59.628;17.852;2023-02-28T12:35:32;0.50;;;0.50;;
12122;SDS011;6125;59.628;17.852;2023-02-28T12:38:05;0.73;;;0.73;;
12122;SDS011;6125;59.628;17.852;2023-02-28T12:40:42;0.40;;;0.40;;
12122;SDS011;6125;59.628;17.852;2023-02-28T12:43:12;0.70;;;0.50;;
12122;SDS011;6125;59.628;17.852;2023-02-28T12:45:43;0.73;;;0.57;;
12122;SDS011;6125;59.628;17.852;2023-02-28T12:48:14;0.63;;;0.63;;
12122;SDS011;6125;59.628;17.852;2023-02-28T12:50:44;0.70;;;0.60;;
12122;SDS011;6125;59.628;17.852;2023-02-28T12:53:17;1.17;;;0.50;;
12122;SDS011;6125;59.628;17.852;2023-02-28T12:55:53;0.43;;;0.43;;
12122;SDS011;6125;59.628;17.852;2023-02-28T12:58:30;0.73;;;0.40;;
12122;SDS011;6125;59.628;17.852;2023-02-28T13:01:05;1.53;;;0.50;;
12122;SDS011;6125;59.628;17.852;2023-02-28T13:04:04;0.80;;;0.50;;
12122;SDS011;6125;59.628;17.852;2023-02-28T13:06:53;0.60;;;0.50;;
12122;SDS011;6125;59.628;17.852;2023-02-28T13:09:39;0.50;;;0.50;;
12122;SDS011;6125;59.628;17.852;2023-02-28T13:12:12;0.43;;;0.40;;
12122;SDS011;6125;59.628;17.852;2023-02-28T13:14:40;1.67;;;0.70;;
12122;SDS011;6125;59.628;17.852;2023-02-28T13:17:11;1.50;;;0.73;;
12122;SDS011;6125;59.628;17.852;2023-02-28T13:19:40;0.43;;;0.43;;
12122;SDS011;6125;59.628;17.852;2023-02-28T13:22:17;1.83;;;0.70;;
12122;SDS011;6125;59.628;17.852;2023-02-28T13:24:47;0.93;;;0.83;;
12122;SDS011;6125;59.628;17.852;2023-02-28T13:33:21;1.27;;;0.73;;
12122;SDS011;6125;59.628;17.852;2023-02-28T13:36:00;1.17;;;0.80;;
12122;SDS011;6125;59.628;17.852;2023-02-28T13:38:38;0.90;;;0.80;;
12122;SDS011;6125;59.628;17.852;2023-02-28T13:44:09;1.40;;;0.83;;
12122;SDS011;6125;59.628;17.852;2023-02-28T13:49:39;0.87;;;0.87;;
12122;SDS011;6125;59.628;17.852;2023-02-28T13:52:09;0.73;;;0.73;;
12122;SDS011;6125;59.628;17.852;2023-02-28T13:54:48;1.50;;;0.80;;
12122;SDS011;6125;59.628;17.852;2023-02-28T13:57:28;0.73;;;0.73;;
12122;SDS011;6125;59.628;17.852;2023-02-28T14:00:13;0.80;;;0.80;;
12122;SDS011;6125;59.628;17.852;2023-02-28T14:06:03;1.67;;;0.80;;
12122;SDS011;6125;59.628;17.852;2023-02-28T14:08:45;1.50;;;0.57;;
12122;SDS011;6125;59.628;17.852;2023-02-28T14:11:29;0.57;;;0.57;;
12122;SDS011;6125;59.628;17.852;2023-02-28T14:13:58;1.17;;;0.70;;
12122;SDS011;6125;59.628;17.852;2023-02-28T14:16:27;0.70;;;0.70;;
12122;SDS011;6125;59.628;17.852;2023-02-28T14:19:03;0.80;;;0.80;;
12122;SDS011;6125;59.628;17.852;2023-02-28T14:21:38;2.50;;;0.90;;
12122;SDS011;6125;59.628;17.852;2023-02-28T14:24:20;1.37;;;1.10;;
12122;SDS011;6125;59.628;17.852;2023-02-28T14:27:14;1.30;;;0.93;;
12122;SDS011;6125;59.628;17.852;2023-02-28T14:32:59;1.73;;;0.80;;
12122;SDS011;6125;59.628;17.852;2023-02-28T14:35:39;2.23;;;0.90;;
12122;SDS011;6125;59.628;17.852;2023-02-28T14:38:27;1.17;;;0.97;;
12122;SDS011;6125;59.628;17.852;2023-02-28T14:40:58;1.13;;;0.77;;
12122;SDS011;6125;59.628;17.852;2023-02-28T14:43:28;2.17;;;1.30;;
12122;SDS011;6125;59.628;17.852;2023-02-28T14:45:56;1.07;;;0.93;;
12122;SDS011;6125;59.628;17.852;2023-02-28T14:48:27;1.87;;;0.80;;
12122;SDS011;6125;59.628;17.852;2023-02-28T14:50:55;1.97;;;0.90;;
12122;SDS011;6125;59.628;17.852;2023-02-28T14:53:25;4.10;;;1.43;;
12122;SDS011;6125;59.628;17.852;2023-02-28T14:55:55;2.67;;;1.63;;
12122;SDS011;6125;59.628;17.852;2023-02-28T14:58:23;4.97;;;1.47;;
12122;SDS011;6125;59.628;17.852;2023-02-28T15:00:53;2.73;;;0.90;;
12122;SDS011;6125;59.628;17.852;2023-02-28T15:03:22;2.93;;;1.00;;
12122;SDS011;6125;59.628;17.852;2023-02-28T15:05:52;5.10;;;2.00;;
12122;SDS011;6125;59.628;17.852;2023-02-28T15:08:22;4.47;;;2.00;;
12122;SDS011;6125;59.628;17.852;2023-02-28T15:10:51;3.90;;;1.57;;
12122;SDS011;6125;59.628;17.852;2023-02-28T15:13:21;2.20;;;1.30;;
12122;SDS011;6125;59.628;17.852;2023-02-28T15:15:51;3.67;;;1.50;;
12122;SDS011;6125;59.628;17.852;2023-02-28T15:18:23;3.97;;;1.53;;
12122;SDS011;6125;59.628;17.852;2023-02-28T15:23:28;6.47;;;1.57;;
12122;SDS011;6125;59.628;17.852;2023-02-28T15:25:56;1.27;;;1.03;;
12122;SDS011;6125;59.628;17.852;2023-02-28T15:28:24;2.37;;;1.30;;
12122;SDS011;6125;59.628;17.852;2023-02-28T15:30:53;1.40;;;1.03;;
12122;SDS011;6125;59.628;17.852;2023-02-28T15:33:23;2.20;;;0.80;;
12122;SDS011;6125;59.628;17.852;2023-02-28T15:35:51;1.20;;;0.90;;
12122;SDS011;6125;59.628;17.852;2023-02-28T15:38:33;1.43;;;0.90;;
12122;SDS011;6125;59.628;17.852;2023-02-28T15:41:02;1.60;;;0.90;;
12122;SDS011;6125;59.628;17.852;2023-02-28T15:43:34;0.93;;;0.77;;